Grants, NM

12:42 AM MDT on July 23, 2014 (GMT -0600)
Grants-Milan Municipal (KGNT) Elev 6519 ft | 35.17 °N, 107.90 °W | Change Station

Current weather conditions updated 7 minutes ago

Partly Cloudy
Partly Cloudy
66 °F
Feels Like 66 °F
N
0
Wind Variable Wind from North

Today is forecast to be Cooler than yesterday. Showers and thunderstorms late.

Today
High -- | Low -- °F
--% Chance of Precip.
Yesterday
High -- | Low -- °F
Precip. -- in
6:13 AM 8:21 PM
Waning Crescent, 12% visible
Pressure 30.44 in
Visibility 10.0 miles
Clouds Scattered Clouds 11000 ft
Dew Point 53 °F
Humidity 62%
Rainfall 0.00 in
Snow Depth Not available.
UV 0 out of 12
Pollen 4.10 out of 12
Air Quality Not available.
Flu Activity Not available.
METAR KGNT 230635Z AUTO 00000KT 10SM SCT110 19/12 A3044 RMK AO2 T01890115

More Conditions Fewer Conditions

Pressure 30.44 in
Visibility 10.0 miles
Clouds Scattered Clouds 11000 ft
Dew Point 53 °F
Humidity 62%
Rainfall 0.00 in
Snow Depth Not available.
UV 0 out of 12
Pollen 4.10 out of 12
Air Quality Not available.
Flu Activity Not available.
METAR KGNT 230635Z AUTO 00000KT 10SM SCT110 19/12 A3044 RMK AO2 T01890115

More Conditions Fewer Conditions

10-Day Weather Forecast

Almanac

Astronomy

Jul. 23, 2014 Rise Set
Actual Time 6:13 AM MDT 8:21 PM MDT
Civil Twilight 5:44 AM MDT 8:50 PM MDT
Nautical Twilight 5:09 AM MDT 9:25 PM MDT
Astronomical Twilight 4:31 AM MDT 10:03 PM MDT
Moon 3:33 AM MDT 5:53 PM MDT
Length of Visible Light 15h 05m
Length of Day
14h 08m
Tomorrow will be 1m 24s shorter.
Waning Crescent, 12% of the Moon is Illuminated
Today
Waning Crescent
Jul 26
New
Aug 3
First Quarter
Aug 10
Full
Aug 17
Last Quarter

Today's Extremes

State Highs State Lows

Community

WunderPhotos

Upload Photos

1,736,522 photos uploaded!

Nearby

Snow Depth

Station Depth Elevation
Senorita Divide #2 0 in 8600 ft
Hopewell 0 in 10000 ft
Wesner Springs 1 in 11120 ft
Gallegos Peak 0 in 9800 ft
Silver Creek Divide 0 in 9000 ft

Earthquake Activity

City Distance Mag. Time & Date
No recent earthquake activity has been reported nearby.
Minimum magnitude displayed is 2.5.

Coastal Water Temperatures

Place Temperature
No Stations Reporting

Nearby Weather Stations

Station Location Temp. Dew Point Humidity Wind Precip. Elev Updated Type
RAWS GRANTS NM, Grants, NM 64 °F 44 °F 49% SSE  at  7 mph 0.00 in / hr 8620 ft 11:16 PM MDT MADIS
RAWS BLUEWATER RIDGE NM, Prewitt, NM 66 °F 45 °F 47% SSE  at  5 mph 0.00 in / hr 8289 ft 11:05 PM MDT MADIS

Show More Stations Show Fewer Stations